Time;durP1;ratioP1;P1;durP2;ratioP2;P2;SDS_P1;SDS_P2;PMS_P1;PMS_P2;Temp;Humidity;BMP_temperature;BMP_pressure;BME280_temperature;BME280_humidity;BME280_pressure;Samples;Min_cycle;Max_cycle;Signal;HPM_P1;HPM_P2
2022/09/07 00:00:34;;;;;;;;;;;;;;;;;;2132839;27;19958;-45
2022/09/07 00:01:36;;;;;;;;;;;;;;;;;;2132507;27;19931;-45
2022/09/07 00:02:37;;;;;;;;;;;;;;;;;;2132848;27;20052;-45
2022/09/07 00:03:38;;;;;;;;;;;;;;;;;;2132669;27;20149;-45
2022/09/07 00:04:39;;;;;;;;;;;;;;;;;;2132952;27;19923;-42
2022/09/07 00:05:40;;;;;;;;;;;;;;;;;;2132630;27;19934;-42
2022/09/07 00:06:41;;;;;;;;;;;;;;;;;;2132536;27;20022;-42
2022/09/07 00:07:42;;;;;;;;;;;;;;;;;;2132924;27;20066;-45
2022/09/07 00:08:43;;;;;;;;;;;;;;;;;;2132517;27;20025;-45
2022/09/07 00:09:43;;;;;;;;;;;;;;;;;;2132905;27;19923;-45
2022/09/07 00:10:44;;;;;;;;;;;;;;;;;;2132539;27;20380;-46
2022/09/07 00:11:45;;;;;;;;;;;;;;;;;;2125881;27;19924;-46
2022/09/07 00:12:46;;;;;;;;;;;;;;;;;;2126389;27;19929;-46
2022/09/07 00:13:50;;;;;;;;;;;;;;;;;;2132627;27;20364;-46
2022/09/07 00:14:50;;;;;;;;;;;;;;;;;;2132700;27;19965;-46
2022/09/07 00:15:51;;;;;;;;;;;;;;;;;;2132583;27;19946;-46
2022/09/07 00:16:52;;;;;;;;;;;;;;;;;;2132653;27;19977;-45
2022/09/07 00:17:53;;;;;;;;;;;;;;;;;;2132598;27;20055;-46
2022/09/07 00:18:55;;;;;;;;;;;;;;;;;;2132697;27;20428;-45
2022/09/07 00:19:55;;;;;;;;;;;;;;;;;;2132478;27;20322;-46
2022/09/07 00:20:56;;;;;;;;;;;;;;;;;;2132688;27;19930;-46
2022/09/07 00:21:57;;;;;;;;;;;;;;;;;;2132488;27;20560;-45
2022/09/07 00:22:58;;;;;;;;;;;;;;;;;;2132807;27;19969;-46
2022/09/07 00:23:59;;;;;;;;;;;;;;;;;;2132617;27;19976;-46
2022/09/07 00:25:00;;;;;;;;;;;;;;;;;;2132512;27;20366;-45
2022/09/07 00:26:00;;;;;;;;;;;;;;;;;;2132509;27;19986;-45
2022/09/07 00:27:01;;;;;;;;;;;;;;;;;;2132445;27;20067;-45
2022/09/07 00:28:02;;;;;;;;;;;;;;;;;;2132535;27;19952;-45
2022/09/07 00:29:03;;;;;;;;;;;;;;;;;;2132523;27;19962;-46
2022/09/07 00:30:04;;;;;;;;;;;;;;;;;;2132734;27;20255;-46
2022/09/07 00:31:05;;;;;;;;;;;;;;;;;;2132462;27;19923;-46
2022/09/07 00:32:06;;;;;;;;;;;;;;;;;;2132424;27;20308;-46
2022/09/07 00:33:07;;;;;;;;;;;;;;;;;;2132457;27;19938;-46
2022/09/07 00:34:07;;;;;;;;;;;;;;;;;;2132585;27;19963;-46
2022/09/07 00:35:08;;;;;;;;;;;;;;;;;;2132512;27;19924;-45
2022/09/07 00:36:09;;;;;;;;;;;;;;;;;;2132044;27;20005;-42
2022/09/07 00:37:10;;;;;;;;;;;;;;;;;;2131957;27;19959;-42
2022/09/07 00:38:11;;;;;;;;;;;;;;;;;;2132385;27;20416;-42
2022/09/07 00:39:12;;;;;;;;;;;;;;;;;;2132450;27;20161;-42
2022/09/07 00:40:12;;;;;;;;;;;;;;;;;;2132446;27;20092;-42
2022/09/07 00:41:14;;;;;;;;;;;;;;;;;;2132356;27;19948;-42
2022/09/07 00:42:14;;;;;;;;;;;;;;;;;;2132374;27;19923;-42
2022/09/07 00:43:15;;;;;;;;;;;;;;;;;;2132358;27;19981;-42
2022/09/07 00:44:16;;;;;;;;;;;;;;;;;;2132671;27;19958;-46
2022/09/07 00:45:17;;;;;;;;;;;;;;;;;;2132427;27;20313;-46
2022/09/07 00:46:18;;;;;;;;;;;;;;;;;;2132294;27;20483;-46
2022/09/07 00:47:19;;;;;;;;;;;;;;;;;;2132375;27;20021;-46
2022/09/07 00:48:20;;;;;;;;;;;;;;;;;;2132466;27;19970;-46
2022/09/07 00:49:21;;;;;;;;;;;;;;;;;;2132311;27;20059;-47
2022/09/07 00:50:21;;;;;;;;;;;;;;;;;;2132467;27;19923;-46
2022/09/07 00:51:22;;;;;;;;;;;;;;;;;;2132295;27;19923;-47
2022/09/07 00:52:23;;;;;;;;;;;;;;;;;;2132306;27;19923;-45
2022/09/07 00:53:24;;;;;;;;;;;;;;;;;;2132294;27;20026;-46
2022/09/07 00:54:25;;;;;;;;;;;;;;;;;;2132462;27;20010;-45
2022/09/07 00:55:26;;;;;;;;;;;;;;;;;;2132389;27;19930;-46
2022/09/07 00:56:27;;;;;;;;;;;;;;;;;;2132248;27;20022;-46
2022/09/07 00:57:28;;;;;;;;;;;;;;;;;;2132446;27;19930;-48
2022/09/07 00:58:29;;;;;;;;;;;;;;;;;;2132233;27;20322;-46
2022/09/07 00:59:30;;;;;;;;;;;;;;;;;;2132333;27;20025;-47
2022/09/07 01:00:30;;;;;;;;;;;;;;;;;;2132269;27;19965;-46
2022/09/07 01:01:32;;;;;;;;;;;;;;;;;;2132298;27;19933;-46
2022/09/07 01:02:33;;;;;;;;;;;;;;;;;;2132161;27;19924;-46
2022/09/07 01:03:34;;;;;;;;;;;;;;;;;;2132609;27;20444;-47
2022/09/07 01:04:35;;;;;;;;;;;;;;;;;;2132202;27;19972;-47
2022/09/07 01:05:36;;;;;;;;;;;;;;;;;;2132410;27;19930;-45
2022/09/07 01:06:37;;;;;;;;;;;;;;;;;;2132405;27;20254;-46
2022/09/07 01:07:38;;;;;;;;;;;;;;;;;;2126186;27;19999;-46
2022/09/07 01:08:38;;;;;;;;;;;;;;;;;;2123533;28;20334;-45
2022/09/07 01:09:40;;;;;;;;;;;;;;;;;;2131411;27;19929;-46
2022/09/07 01:10:41;;;;;;;;;;;;;;;;;;2132181;27;20061;-46
2022/09/07 01:11:44;;;;;;;;;;;;;;;;;;2125954;27;19952;-46
2022/09/07 01:12:45;;;;;;;;;;;;;;;;;;2123750;28;19933;-47
2022/09/07 01:13:46;;;;;;;;;;;;;;;;;;2123617;28;20002;-46
2022/09/07 01:14:47;;;;;;;;;;;;;;;;;;2123735;28;20322;-46
2022/09/07 01:15:48;;;;;;;;;;;;;;;;;;2123688;28;19923;-47
2022/09/07 01:16:48;;;;;;;;;;;;;;;;;;2123517;27;20437;-45
2022/09/07 01:17:49;;;;;;;;;;;;;;;;;;2123721;28;20048;-47
2022/09/07 01:18:50;;;;;;;;;;;;;;;;;;2123708;28;19973;-46
2022/09/07 01:19:51;;;;;;;;;;;;;;;;;;2123720;28;20169;-46
2022/09/07 01:20:52;;;;;;;;;;;;;;;;;;2123530;28;20011;-46
2022/09/07 01:21:53;;;;;;;;;;;;;;;;;;2123672;27;19923;-47
2022/09/07 01:22:54;;;;;;;;;;;;;;;;;;2123541;28;20002;-46
2022/09/07 01:23:55;;;;;;;;;;;;;;;;;;2123764;28;20368;-46
2022/09/07 01:24:57;;;;;;;;;;;;;;;;;;2123547;28;19972;-46
2022/09/07 01:25:57;;;;;;;;;;;;;;;;;;2123646;28;20367;-45
2022/09/07 01:26:58;;;;;;;;;;;;;;;;;;2123560;27;19923;-46
2022/09/07 01:27:59;;;;;;;;;;;;;;;;;;2123623;28;20391;-46
2022/09/07 01:29:00;;;;;;;;;;;;;;;;;;2123639;28;19927;-47
2022/09/07 01:30:01;;;;;;;;;;;;;;;;;;2123510;28;20360;-46
2022/09/07 01:31:02;;;;;;;;;;;;;;;;;;2123632;28;19951;-45
2022/09/07 01:32:04;;;;;;;;;;;;;;;;;;2123372;27;19930;-45
2022/09/07 01:33:05;;;;;;;;;;;;;;;;;;2123479;28;20443;-46
2022/09/07 01:34:06;;;;;;;;;;;;;;;;;;2123700;28;19930;-42
2022/09/07 01:35:06;;;;;;;;;;;;;;;;;;2123690;28;19967;-46
2022/09/07 01:36:07;;;;;;;;;;;;;;;;;;2123458;28;19923;-47
2022/09/07 01:37:08;;;;;;;;;;;;;;;;;;2123357;27;19929;-46
2022/09/07 01:38:09;;;;;;;;;;;;;;;;;;2123589;28;19970;-46
2022/09/07 01:39:10;;;;;;;;;;;;;;;;;;2123627;28;20018;-47
2022/09/07 01:40:11;;;;;;;;;;;;;;;;;;2123438;28;20374;-46
2022/09/07 01:41:12;;;;;;;;;;;;;;;;;;2123378;27;20288;-46
2022/09/07 01:42:13;;;;;;;;;;;;;;;;;;2123526;28;19930;-46
2022/09/07 01:43:14;;;;;;;;;;;;;;;;;;2123406;28;19924;-46
2022/09/07 01:44:15;;;;;;;;;;;;;;;;;;2123640;28;20164;-46
2022/09/07 01:45:15;;;;;;;;;;;;;;;;;;2123410;28;19985;-46
2022/09/07 01:46:16;;;;;;;;;;;;;;;;;;2123350;27;20031;-46
2022/09/07 01:47:17;;;;;;;;;;;;;;;;;;2123388;27;20010;-47
2022/09/07 01:48:18;;;;;;;;;;;;;;;;;;2123333;28;19923;-46
2022/09/07 01:49:19;;;;;;;;;;;;;;;;;;2123460;28;20060;-45
2022/09/07 01:50:20;;;;;;;;;;;;;;;;;;2123451;28;20416;-46
2022/09/07 01:51:21;;;;;;;;;;;;;;;;;;2123496;27;19934;-45
2022/09/07 01:52:22;;;;;;;;;;;;;;;;;;2123401;28;19946;-46
2022/09/07 01:53:22;;;;;;;;;;;;;;;;;;2123502;28;19971;-45
2022/09/07 01:54:23;;;;;;;;;;;;;;;;;;2123435;28;20336;-46
2022/09/07 01:55:24;;;;;;;;;;;;;;;;;;2123396;28;20387;-46
2022/09/07 01:56:26;;;;;;;;;;;;;;;;;;2123288;27;19976;-47
2022/09/07 01:57:26;;;;;;;;;;;;;;;;;;2123357;28;20053;-46
2022/09/07 01:58:27;;;;;;;;;;;;;;;;;;2123314;28;20505;-45
2022/09/07 01:59:28;;;;;;;;;;;;;;;;;;2123348;28;19946;-46
2022/09/07 02:00:29;;;;;;;;;;;;;;;;;;2123315;28;20364;-45
2022/09/07 02:01:31;;;;;;;;;;;;;;;;;;2123266;27;19951;-45
2022/09/07 02:02:32;;;;;;;;;;;;;;;;;;2123653;28;19931;-45
2022/09/07 02:03:33;;;;;;;;;;;;;;;;;;2123227;27;19924;-45
2022/09/07 02:04:34;;;;;;;;;;;;;;;;;;2123576;28;19923;-46
2022/09/07 02:05:35;;;;;;;;;;;;;;;;;;2128443;27;20018;-46
2022/09/07 02:06:36;;;;;;;;;;;;;;;;;;2131779;27;20386;-46
2022/09/07 02:07:37;;;;;;;;;;;;;;;;;;2131820;27;20378;-45
2022/09/07 02:08:38;;;;;;;;;;;;;;;;;;2131927;27;19923;-47
2022/09/07 02:09:38;;;;;;;;;;;;;;;;;;2131934;27;19924;-46
2022/09/07 02:10:39;;;;;;;;;;;;;;;;;;2131906;27;19930;-46
2022/09/07 02:11:41;;;;;;;;;;;;;;;;;;2125979;27;19923;-45
2022/09/07 02:12:42;;;;;;;;;;;;;;;;;;2123279;28;19930;-47
2022/09/07 02:13:42;;;;;;;;;;;;;;;;;;2123255;28;19962;-46
2022/09/07 02:14:43;;;;;;;;;;;;;;;;;;2123177;28;19930;-46
2022/09/07 02:15:44;;;;;;;;;;;;;;;;;;2123390;28;20021;-46
2022/09/07 02:16:45;;;;;;;;;;;;;;;;;;2123192;27;19927;-46
2022/09/07 02:17:46;;;;;;;;;;;;;;;;;;2123262;28;19923;-46
2022/09/07 02:18:47;;;;;;;;;;;;;;;;;;2123327;28;20015;-46
2022/09/07 02:19:48;;;;;;;;;;;;;;;;;;2123393;28;19930;-45
2022/09/07 02:20:49;;;;;;;;;;;;;;;;;;2123203;28;19924;-46
2022/09/07 02:21:49;;;;;;;;;;;;;;;;;;2123333;27;19972;-46
2022/09/07 02:22:50;;;;;;;;;;;;;;;;;;2123298;28;19927;-46
2022/09/07 02:23:51;;;;;;;;;;;;;;;;;;2123198;28;20018;-46
2022/09/07 02:24:52;;;;;;;;;;;;;;;;;;2123536;28;19923;-46
2022/09/07 02:25:54;;;;;;;;;;;;;;;;;;2123211;28;20011;-46
2022/09/07 02:26:55;;;;;;;;;;;;;;;;;;2123144;27;20443;-46
2022/09/07 02:27:55;;;;;;;;;;;;;;;;;;2123180;28;20014;-48
2022/09/07 02:28:56;;;;;;;;;;;;;;;;;;2123125;28;20408;-46
2022/09/07 02:29:57;;;;;;;;;;;;;;;;;;2123159;28;19927;-46
2022/09/07 02:30:58;;;;;;;;;;;;;;;;;;2123240;28;19950;-46
2022/09/07 02:31:59;;;;;;;;;;;;;;;;;;2123033;27;19930;-46
2022/09/07 02:33:00;;;;;;;;;;;;;;;;;;2123067;28;19931;-45
2022/09/07 02:34:01;;;;;;;;;;;;;;;;;;2123280;28;19928;-46
2022/09/07 02:35:02;;;;;;;;;;;;;;;;;;2123178;28;19924;-45
2022/09/07 02:36:03;;;;;;;;;;;;;;;;;;2123517;28;19923;-41
2022/09/07 02:37:04;;;;;;;;;;;;;;;;;;2123042;27;20380;-42
2022/09/07 02:38:05;;;;;;;;;;;;;;;;;;2123112;28;20018;-42
2022/09/07 02:39:06;;;;;;;;;;;;;;;;;;2123214;28;19956;-43
2022/09/07 02:40:07;;;;;;;;;;;;;;;;;;2123298;28;20014;-42
2022/09/07 02:41:08;;;;;;;;;;;;;;;;;;2123170;28;19924;-42
2022/09/07 02:42:09;;;;;;;;;;;;;;;;;;2123122;27;19966;-42
2022/09/07 02:43:10;;;;;;;;;;;;;;;;;;2123148;28;19923;-42
2022/09/07 02:44:10;;;;;;;;;;;;;;;;;;2123076;28;19927;-42
2022/09/07 02:45:11;;;;;;;;;;;;;;;;;;2123103;28;20504;-42
2022/09/07 02:46:12;;;;;;;;;;;;;;;;;;2122978;27;20052;-42
2022/09/07 02:47:13;;;;;;;;;;;;;;;;;;2123084;28;20022;-42
2022/09/07 02:48:14;;;;;;;;;;;;;;;;;;2123062;28;20515;-42
2022/09/07 02:49:15;;;;;;;;;;;;;;;;;;2123102;28;19929;-42
2022/09/07 02:50:16;;;;;;;;;;;;;;;;;;2123320;28;19955;-42
2022/09/07 02:51:17;;;;;;;;;;;;;;;;;;2123186;27;20006;-42
2022/09/07 02:52:17;;;;;;;;;;;;;;;;;;2123210;28;20373;-42
2022/09/07 02:53:21;;;;;;;;;;;;;;;;;;2122996;28;19937;-42
2022/09/07 02:54:21;;;;;;;;;;;;;;;;;;2123049;28;20283;-42
2022/09/07 02:55:22;;;;;;;;;;;;;;;;;;2122987;28;19924;-42
2022/09/07 02:56:23;;;;;;;;;;;;;;;;;;2123104;27;20018;-42
2022/09/07 02:57:24;;;;;;;;;;;;;;;;;;2123052;28;19930;-42
2022/09/07 02:58:25;;;;;;;;;;;;;;;;;;2123013;28;20423;-42
2022/09/07 02:59:26;;;;;;;;;;;;;;;;;;2123165;27;19970;-42
2022/09/07 03:00:27;;;;;;;;;;;;;;;;;;2124621;28;20010;-42
2022/09/07 03:01:28;;;;;;;;;;;;;;;;;;2126464;27;20365;-46
2022/09/07 03:02:28;;;;;;;;;;;;;;;;;;2133238;27;19968;-47
2022/09/07 03:03:30;;;;;;;;;;;;;;;;;;2133222;27;20333;-46
2022/09/07 03:04:30;;;;;;;;;;;;;;;;;;2132982;27;19937;-46
2022/09/07 03:05:31;;;;;;;;;;;;;;;;;;2133054;27;20457;-46
2022/09/07 03:06:32;;;;;;;;;;;;;;;;;;2132924;27;20403;-46
2022/09/07 03:07:33;;;;;;;;;;;;;;;;;;2133142;27;19954;-47
2022/09/07 03:08:36;;;;;;;;;;;;;;;;;;2133019;27;19923;-46
2022/09/07 03:09:37;;;;;;;;;;;;;;;;;;2133062;27;19923;-46
2022/09/07 03:10:38;;;;;;;;;;;;;;;;;;2133006;27;20060;-47
2022/09/07 03:11:38;;;;;;;;;;;;;;;;;;2127395;27;19968;-46
2022/09/07 03:12:39;;;;;;;;;;;;;;;;;;2124544;28;20010;-46
2022/09/07 03:13:40;;;;;;;;;;;;;;;;;;2124542;28;20376;-45
2022/09/07 03:14:41;;;;;;;;;;;;;;;;;;2124415;28;20018;-46
2022/09/07 03:15:42;;;;;;;;;;;;;;;;;;2124551;28;20014;-42
2022/09/07 03:16:43;;;;;;;;;;;;;;;;;;2124287;27;19927;-42
2022/09/07 03:17:44;;;;;;;;;;;;;;;;;;2124424;28;20002;-42
2022/09/07 03:18:45;;;;;;;;;;;;;;;;;;2124500;28;20013;-42
2022/09/07 03:19:46;;;;;;;;;;;;;;;;;;2124426;28;20048;-42
2022/09/07 03:20:47;;;;;;;;;;;;;;;;;;2124360;28;20376;-42
2022/09/07 03:21:48;;;;;;;;;;;;;;;;;;2124302;27;20017;-42
2022/09/07 03:22:48;;;;;;;;;;;;;;;;;;2124494;28;19963;-42
2022/09/07 03:23:49;;;;;;;;;;;;;;;;;;2124620;28;19924;-42
2022/09/07 03:24:52;;;;;;;;;;;;;;;;;;2124693;28;19923;-42
2022/09/07 03:25:53;;;;;;;;;;;;;;;;;;2124589;28;20010;-42
2022/09/07 03:26:53;;;;;;;;;;;;;;;;;;2124275;27;20351;-43
2022/09/07 03:27:55;;;;;;;;;;;;;;;;;;2124501;28;19959;-42
2022/09/07 03:28:56;;;;;;;;;;;;;;;;;;2124411;28;19923;-42
2022/09/07 03:29:57;;;;;;;;;;;;;;;;;;2124324;28;19966;-42
2022/09/07 03:30:58;;;;;;;;;;;;;;;;;;2124405;28;19927;-42
2022/09/07 03:31:59;;;;;;;;;;;;;;;;;;2124372;27;20318;-42
2022/09/07 03:32:59;;;;;;;;;;;;;;;;;;2124683;28;20356;-42
2022/09/07 03:34:00;;;;;;;;;;;;;;;;;;2124542;28;19934;-41
2022/09/07 03:35:01;;;;;;;;;;;;;;;;;;2124634;28;19962;-42
2022/09/07 03:36:02;;;;;;;;;;;;;;;;;;2124297;28;20277;-42
2022/09/07 03:37:03;;;;;;;;;;;;;;;;;;2124351;27;20288;-42
2022/09/07 03:38:04;;;;;;;;;;;;;;;;;;2124278;28;20002;-42
2022/09/07 03:39:06;;;;;;;;;;;;;;;;;;2124303;28;20031;-42
2022/09/07 03:40:06;;;;;;;;;;;;;;;;;;2124232;28;20065;-42
2022/09/07 03:41:07;;;;;;;;;;;;;;;;;;2124252;28;19945;-42
2022/09/07 03:42:08;;;;;;;;;;;;;;;;;;2124070;27;19923;-42
2022/09/07 03:43:09;;;;;;;;;;;;;;;;;;2124262;28;19945;-42
2022/09/07 03:44:10;;;;;;;;;;;;;;;;;;2124222;28;19924;-42
2022/09/07 03:45:11;;;;;;;;;;;;;;;;;;2124170;28;20376;-42
2022/09/07 03:46:14;;;;;;;;;;;;;;;;;;2124212;27;19963;-42
2022/09/07 03:47:15;;;;;;;;;;;;;;;;;;2124152;28;20300;-42
2022/09/07 03:48:16;;;;;;;;;;;;;;;;;;2124146;28;20015;-42
2022/09/07 03:49:17;;;;;;;;;;;;;;;;;;2124158;28;19930;-42
2022/09/07 03:50:18;;;;;;;;;;;;;;;;;;2124222;28;20010;-42
2022/09/07 03:51:19;;;;;;;;;;;;;;;;;;2124130;27;20006;-42
2022/09/07 03:52:20;;;;;;;;;;;;;;;;;;2124162;28;19953;-42
2022/09/07 03:53:21;;;;;;;;;;;;;;;;;;2124184;28;20367;-42
2022/09/07 03:54:21;;;;;;;;;;;;;;;;;;2124337;28;20007;-42
2022/09/07 03:55:22;;;;;;;;;;;;;;;;;;2124148;28;20407;-42
2022/09/07 03:56:23;;;;;;;;;;;;;;;;;;2124067;27;19937;-42
2022/09/07 03:57:24;;;;;;;;;;;;;;;;;;2124315;28;20020;-46
2022/09/07 03:58:25;;;;;;;;;;;;;;;;;;2131989;27;19923;-45
2022/09/07 03:59:26;;;;;;;;;;;;;;;;;;2132794;27;19937;-45
2022/09/07 04:00:27;;;;;;;;;;;;;;;;;;2132734;27;19937;-48
2022/09/07 04:01:28;;;;;;;;;;;;;;;;;;2133067;27;20396;-42
2022/09/07 04:02:28;;;;;;;;;;;;;;;;;;2132712;27;19923;-42
2022/09/07 04:03:29;;;;;;;;;;;;;;;;;;2132747;27;19961;-42
2022/09/07 04:04:30;;;;;;;;;;;;;;;;;;2132772;27;19927;-46
2022/09/07 04:05:31;;;;;;;;;;;;;;;;;;2132957;27;20045;-46
2022/09/07 04:06:32;;;;;;;;;;;;;;;;;;2132540;27;20023;-46
2022/09/07 04:07:33;;;;;;;;;;;;;;;;;;2132604;27;19994;-46
2022/09/07 04:08:34;;;;;;;;;;;;;;;;;;2132882;27;19955;-46
2022/09/07 04:09:35;;;;;;;;;;;;;;;;;;2132622;27;20372;-46
2022/09/07 04:10:36;;;;;;;;;;;;;;;;;;2133164;27;19941;-42
2022/09/07 04:11:37;;;;;;;;;;;;;;;;;;2127179;27;20342;-42
2022/09/07 04:12:38;;;;;;;;;;;;;;;;;;2124167;28;20014;-42
2022/09/07 04:13:40;;;;;;;;;;;;;;;;;;2123956;28;20368;-42
2022/09/07 04:14:40;;;;;;;;;;;;;;;;;;2124370;28;19970;-42
2022/09/07 04:15:41;;;;;;;;;;;;;;;;;;2124104;28;19923;-42
2022/09/07 04:16:44;;;;;;;;;;;;;;;;;;2123881;27;20008;-42
2022/09/07 04:17:44;;;;;;;;;;;;;;;;;;2124109;28;19927;-42
2022/09/07 04:18:45;;;;;;;;;;;;;;;;;;2124156;28;20399;-46
2022/09/07 04:19:46;;;;;;;;;;;;;;;;;;2123968;28;20364;-46
2022/09/07 04:20:49;;;;;;;;;;;;;;;;;;2123947;28;19929;-46
2022/09/07 04:21:50;;;;;;;;;;;;;;;;;;2124041;27;20056;-46
2022/09/07 04:22:51;;;;;;;;;;;;;;;;;;2124117;28;20318;-46
2022/09/07 04:23:54;;;;;;;;;;;;;;;;;;2124170;28;20269;-42
2022/09/07 04:24:55;;;;;;;;;;;;;;;;;;2124038;28;19937;-42
2022/09/07 04:25:56;;;;;;;;;;;;;;;;;;2124040;28;20285;-42
2022/09/07 04:26:57;;;;;;;;;;;;;;;;;;2123984;27;20063;-42
2022/09/07 04:27:58;;;;;;;;;;;;;;;;;;2123965;28;20026;-42
2022/09/07 04:28:59;;;;;;;;;;;;;;;;;;2124070;28;19924;-45
2022/09/07 04:30:00;;;;;;;;;;;;;;;;;;2123881;28;19923;-47
2022/09/07 04:31:01;;;;;;;;;;;;;;;;;;2123914;28;20374;-46
2022/09/07 04:32:02;;;;;;;;;;;;;;;;;;2123820;27;19924;-46
2022/09/07 04:33:03;;;;;;;;;;;;;;;;;;2123977;28;19930;-45
2022/09/07 04:34:04;;;;;;;;;;;;;;;;;;2123857;28;19924;-46
2022/09/07 04:35:05;;;;;;;;;;;;;;;;;;2123981;28;19924;-45
2022/09/07 04:36:05;;;;;;;;;;;;;;;;;;2123880;28;20385;-46
2022/09/07 04:37:06;;;;;;;;;;;;;;;;;;2123850;27;19927;-46
2022/09/07 04:38:07;;;;;;;;;;;;;;;;;;2123941;28;20055;-46
2022/09/07 04:39:08;;;;;;;;;;;;;;;;;;2124005;28;20018;-46
2022/09/07 04:40:09;;;;;;;;;;;;;;;;;;2124028;28;19923;-45
2022/09/07 04:41:10;;;;;;;;;;;;;;;;;;2123836;28;19945;-47
2022/09/07 04:42:11;;;;;;;;;;;;;;;;;;2123851;27;19964;-47
2022/09/07 04:43:12;;;;;;;;;;;;;;;;;;2123853;28;19960;-46
2022/09/07 04:44:13;;;;;;;;;;;;;;;;;;2123832;28;20360;-46
2022/09/07 04:45:17;;;;;;;;;;;;;;;;;;2123900;28;19923;-46
2022/09/07 04:46:18;;;;;;;;;;;;;;;;;;2124101;27;20279;-46
2022/09/07 04:47:19;;;;;;;;;;;;;;;;;;2123767;28;19946;-45
2022/09/07 04:48:20;;;;;;;;;;;;;;;;;;2123937;28;19923;-45
2022/09/07 04:49:21;;;;;;;;;;;;;;;;;;2123808;28;19981;-45
2022/09/07 04:50:21;;;;;;;;;;;;;;;;;;2123918;28;19923;-46
2022/09/07 04:51:22;;;;;;;;;;;;;;;;;;2123856;27;19923;-45
2022/09/07 04:52:23;;;;;;;;;;;;;;;;;;2123897;27;20014;-45
2022/09/07 04:53:24;;;;;;;;;;;;;;;;;;2123906;28;19924;-47
2022/09/07 04:54:25;;;;;;;;;;;;;;;;;;2129651;27;20377;-45
2022/09/07 04:55:26;;;;;;;;;;;;;;;;;;2132475;27;19923;-47
2022/09/07 04:56:27;;;;;;;;;;;;;;;;;;2132199;27;20321;-46
2022/09/07 04:57:28;;;;;;;;;;;;;;;;;;2132426;27;20363;-46
2022/09/07 04:58:29;;;;;;;;;;;;;;;;;;2132243;27;19923;-47
2022/09/07 04:59:30;;;;;;;;;;;;;;;;;;2132475;27;19923;-46
2022/09/07 05:00:31;;;;;;;;;;;;;;;;;;2132588;27;19927;-45
2022/09/07 05:01:32;;;;;;;;;;;;;;;;;;2132297;27;20061;-47
2022/09/07 05:02:33;;;;;;;;;;;;;;;;;;2132259;27;20352;-45
2022/09/07 05:03:34;;;;;;;;;;;;;;;;;;2132219;27;20013;-45
2022/09/07 05:04:35;;;;;;;;;;;;;;;;;;2132241;27;20377;-46
2022/09/07 05:05:36;;;;;;;;;;;;;;;;;;2132146;27;20372;-46
2022/09/07 05:06:37;;;;;;;;;;;;;;;;;;2132292;27;19937;-47
2022/09/07 05:07:38;;;;;;;;;;;;;;;;;;2132394;27;20386;-46
2022/09/07 05:08:40;;;;;;;;;;;;;;;;;;2132290;27;19938;-45
2022/09/07 05:09:41;;;;;;;;;;;;;;;;;;2132291;27;19930;-47
2022/09/07 05:10:42;;;;;;;;;;;;;;;;;;2132316;27;19923;-46
2022/09/07 05:11:42;;;;;;;;;;;;;;;;;;2125908;27;20380;-45
2022/09/07 05:12:43;;;;;;;;;;;;;;;;;;2123864;28;20025;-43
2022/09/07 05:13:44;;;;;;;;;;;;;;;;;;2123620;28;20359;-42
2022/09/07 05:14:45;;;;;;;;;;;;;;;;;;2123592;28;19927;-42
2022/09/07 05:15:46;;;;;;;;;;;;;;;;;;2123719;28;20376;-43
2022/09/07 05:16:47;;;;;;;;;;;;;;;;;;2123469;27;19924;-42
2022/09/07 05:17:48;;;;;;;;;;;;;;;;;;2123583;28;19961;-43
2022/09/07 05:18:49;;;;;;;;;;;;;;;;;;2123913;28;19923;-46
2022/09/07 05:19:50;;;;;;;;;;;;;;;;;;2123567;28;19962;-45
2022/09/07 05:20:51;;;;;;;;;;;;;;;;;;2123563;28;19970;-46
2022/09/07 05:21:52;;;;;;;;;;;;;;;;;;2123597;27;19923;-46
2022/09/07 05:22:58;;;;;;;;;;;;;;;;;;2123087;27;19944;-45
2022/09/07 05:23:58;;;;;;;;;;;;;;;;;;2123595;28;19927;-45
2022/09/07 05:24:59;;;;;;;;;;;;;;;;;;2123815;28;20287;-47
2022/09/07 05:26:00;;;;;;;;;;;;;;;;;;2123526;28;20057;-46
2022/09/07 05:27:02;;;;;;;;;;;;;;;;;;2123463;27;20368;-45
2022/09/07 05:28:03;;;;;;;;;;;;;;;;;;2123794;28;20056;-45
2022/09/07 05:29:04;;;;;;;;;;;;;;;;;;2123449;28;20088;-45
2022/09/07 05:30:25;;;;;;;;;;;;;;;;;;2123411;28;19923;-45
2022/09/07 05:31:46;;;;;;;;;;;;;;;;;;2123425;27;19945;-45
2022/09/07 05:32:48;;;;;;;;;;;;;;;;;;2123453;28;20335;-45
2022/09/07 05:33:48;;;;;;;;;;;;;;;;;;2123522;28;20028;-45
2022/09/07 05:35:09;;;;;;;;;;;;;;;;;;2123308;28;19923;-46
2022/09/07 05:36:10;;;;;;;;;;;;;;;;;;2123506;28;19986;-47
2022/09/07 05:37:11;;;;;;;;;;;;;;;;;;2123307;28;19978;-45
2022/09/07 05:38:12;;;;;;;;;;;;;;;;;;2123556;28;19967;-45
2022/09/07 05:39:13;;;;;;;;;;;;;;;;;;2123574;28;20004;-45
2022/09/07 05:40:14;;;;;;;;;;;;;;;;;;2123579;28;20006;-45
2022/09/07 05:41:15;;;;;;;;;;;;;;;;;;2123410;27;20424;-45
2022/09/07 05:42:16;;;;;;;;;;;;;;;;;;2123445;28;20060;-45
2022/09/07 05:43:17;;;;;;;;;;;;;;;;;;2123740;28;20076;-44
2022/09/07 05:44:18;;;;;;;;;;;;;;;;;;2123387;28;20006;-48
2022/09/07 05:45:39;;;;;;;;;;;;;;;;;;2123353;28;19938;-46
2022/09/07 05:46:40;;;;;;;;;;;;;;;;;;2123581;27;20057;-46
2022/09/07 05:47:41;;;;;;;;;;;;;;;;;;2123577;28;20384;-47
2022/09/07 05:48:41;;;;;;;;;;;;;;;;;;2123443;27;20427;-43
2022/09/07 05:49:42;;;;;;;;;;;;;;;;;;2123441;28;20010;-43
2022/09/07 05:50:43;;;;;;;;;;;;;;;;;;2129692;27;19923;-43
2022/09/07 05:51:44;;;;;;;;;;;;;;;;;;2131990;27;20320;-44
2022/09/07 05:52:46;;;;;;;;;;;;;;;;;;2131974;27;19962;-43
2022/09/07 05:53:47;;;;;;;;;;;;;;;;;;2132227;27;19923;-43
2022/09/07 05:54:48;;;;;;;;;;;;;;;;;;2132000;27;20015;-43
2022/09/07 05:55:49;;;;;;;;;;;;;;;;;;2131968;27;19958;-44
2022/09/07 05:56:50;;;;;;;;;;;;;;;;;;2131866;27;19937;-43
2022/09/07 05:57:51;;;;;;;;;;;;;;;;;;2131808;27;20450;-44
2022/09/07 05:58:52;;;;;;;;;;;;;;;;;;2132040;27;19930;-44
2022/09/07 05:59:53;;;;;;;;;;;;;;;;;;2132245;27;20340;-44
2022/09/07 06:00:54;;;;;;;;;;;;;;;;;;2131880;27;19979;-44
2022/09/07 06:01:54;;;;;;;;;;;;;;;;;;2131830;27;20348;-43
2022/09/07 06:02:56;;;;;;;;;;;;;;;;;;2132088;27;19923;-43
2022/09/07 06:03:56;;;;;;;;;;;;;;;;;;2131951;27;19923;-44
2022/09/07 06:04:57;;;;;;;;;;;;;;;;;;2132196;27;19923;-44
2022/09/07 06:05:58;;;;;;;;;;;;;;;;;;2132072;27;19927;-44
2022/09/07 06:06:59;;;;;;;;;;;;;;;;;;2132147;27;19966;-47
2022/09/07 06:08:20;;;;;;;;;;;;;;;;;;2131725;27;19930;-44
2022/09/07 06:09:21;;;;;;;;;;;;;;;;;;2131895;27;19927;-44
2022/09/07 06:10:22;;;;;;;;;;;;;;;;;;2131963;27;19954;-44
2022/09/07 06:11:43;;;;;;;;;;;;;;;;;;2125367;27;19923;-42
2022/09/07 06:12:44;;;;;;;;;;;;;;;;;;2123560;28;20388;-45
2022/09/07 06:13:47;;;;;;;;;;;;;;;;;;2123298;28;19923;-44
2022/09/07 06:14:48;;;;;;;;;;;;;;;;;;2123381;28;20063;-44
2022/09/07 06:15:49;;;;;;;;;;;;;;;;;;2123436;28;20007;-46
2022/09/07 06:16:50;;;;;;;;;;;;;;;;;;2123243;27;20336;-47
2022/09/07 06:17:52;;;;;;;;;;;;;;;;;;2123477;28;20010;-47
2022/09/07 06:18:53;;;;;;;;;;;;;;;;;;2123555;28;20014;-44
2022/09/07 06:19:54;;;;;;;;;;;;;;;;;;2123275;28;19930;-44
2022/09/07 06:20:55;;;;;;;;;;;;;;;;;;2123357;28;20006;-44
2022/09/07 06:21:56;;;;;;;;;;;;;;;;;;2123134;27;19966;-44
2022/09/07 06:22:57;;;;;;;;;;;;;;;;;;2123185;28;19924;-44
2022/09/07 06:23:58;;;;;;;;;;;;;;;;;;2123523;28;19923;-47
2022/09/07 06:24:58;;;;;;;;;;;;;;;;;;2123810;28;19927;-46
2022/09/07 06:25:59;;;;;;;;;;;;;;;;;;2123353;28;19970;-46
2022/09/07 06:27:00;;;;;;;;;;;;;;;;;;2123044;27;19924;-48
2022/09/07 06:28:02;;;;;;;;;;;;;;;;;;2123339;28;19934;-47
2022/09/07 06:29:03;;;;;;;;;;;;;;;;;;2123049;28;19924;-47
2022/09/07 06:30:04;;;;;;;;;;;;;;;;;;2123527;28;20240;-44
2022/09/07 06:31:05;;;;;;;;;;;;;;;;;;2123156;28;19924;-44
2022/09/07 06:32:05;;;;;;;;;;;;;;;;;;2123105;27;20380;-44
2022/09/07 06:33:26;;;;;;;;;;;;;;;;;;2123029;28;20383;-44
2022/09/07 06:34:27;;;;;;;;;;;;;;;;;;2123217;27;20022;-45
2022/09/07 06:35:28;;;;;;;;;;;;;;;;;;2125047;28;20018;-47
2022/09/07 06:36:30;;;;;;;;;;;;;;;;;;2124754;27;20014;-47
2022/09/07 06:37:31;;;;;;;;;;;;;;;;;;2124716;28;20039;-45
2022/09/07 06:38:32;;;;;;;;;;;;;;;;;;2124792;28;20509;-44
2022/09/07 06:39:35;;;;;;;;;;;;;;;;;;2124702;28;20019;-44
2022/09/07 06:40:36;;;;;;;;;;;;;;;;;;2124633;28;19923;-43
2022/09/07 06:41:36;;;;;;;;;;;;;;;;;;2124490;27;20389;-42
2022/09/07 06:42:57;;;;;;;;;;;;;;;;;;2124442;28;20010;-43
2022/09/07 06:43:58;;;;;;;;;;;;;;;;;;2124908;28;20018;-44
2022/09/07 06:44:59;;;;;;;;;;;;;;;;;;2124716;27;20004;-42
2022/09/07 06:46:00;;;;;;;;;;;;;;;;;;2124698;28;20059;-41
2022/09/07 06:47:21;;;;;;;;;;;;;;;;;;2124568;28;19934;-42
2022/09/07 06:48:22;;;;;;;;;;;;;;;;;;2124997;28;20280;-42
2022/09/07 06:49:23;;;;;;;;;;;;;;;;;;2124484;28;20232;-41
2022/09/07 06:50:26;;;;;;;;;;;;;;;;;;2124922;28;19927;-42
2022/09/07 06:51:28;;;;;;;;;;;;;;;;;;2124488;27;19975;-43
2022/09/07 06:52:29;;;;;;;;;;;;;;;;;;2124698;28;20015;-42
2022/09/07 06:53:30;;;;;;;;;;;;;;;;;;2124475;28;19968;-42
2022/09/07 06:54:33;;;;;;;;;;;;;;;;;;2124978;28;19923;-42
2022/09/07 06:55:54;;;;;;;;;;;;;;;;;;2124309;28;19930;-42
2022/09/07 06:56:55;;;;;;;;;;;;;;;;;;2124396;27;19955;-42
2022/09/07 06:57:56;;;;;;;;;;;;;;;;;;2124514;28;20436;-42
2022/09/07 06:58:58;;;;;;;;;;;;;;;;;;2124790;28;20372;-45
2022/09/07 06:59:59;;;;;;;;;;;;;;;;;;2124721;28;20010;-44